createdAt,value
2022-10-19T00:01:04.866Z,10.76
2022-10-19T00:03:32.356Z,10.72
2022-10-19T00:05:59.228Z,10.68
2022-10-19T00:08:25.704Z,10.63
2022-10-19T00:10:52.095Z,10.61
2022-10-19T00:13:18.539Z,10.60
2022-10-19T00:15:45.160Z,10.54
2022-10-19T00:18:11.502Z,10.50
2022-10-19T00:20:37.872Z,10.44
2022-10-19T00:23:04.333Z,10.39
2022-10-19T00:25:30.743Z,10.31
2022-10-19T00:27:57.293Z,10.28
2022-10-19T00:30:23.636Z,10.21
2022-10-19T00:32:50.086Z,10.13
2022-10-19T00:35:16.477Z,10.05
2022-10-19T00:37:42.836Z,10.03
2022-10-19T00:40:09.863Z,10.00
2022-10-19T00:42:36.396Z,9.98
2022-10-19T00:45:11.313Z,9.94
2022-10-19T00:47:38.224Z,9.91
2022-10-19T00:50:05.587Z,9.90
2022-10-19T00:52:32.571Z,9.88
2022-10-19T00:54:59.733Z,9.83
2022-10-19T00:57:32.048Z,9.85
2022-10-19T01:00:00.722Z,9.80
2022-10-19T01:02:27.228Z,9.77
2022-10-19T01:04:53.897Z,9.78
2022-10-19T01:07:21.345Z,9.78
2022-10-19T01:09:47.728Z,9.78
2022-10-19T01:13:07.244Z,9.76
2022-10-19T01:15:46.927Z,9.69
2022-10-19T01:18:27.886Z,9.64
2022-10-19T01:21:09.659Z,9.55
2022-10-19T01:23:44.768Z,9.48
2022-10-19T01:26:39.886Z,9.47
2022-10-19T01:29:43.749Z,9.48
2022-10-19T01:32:21.175Z,9.45
2022-10-19T01:34:55.799Z,9.42
2022-10-19T01:37:35.787Z,9.42
2022-10-19T01:40:15.041Z,9.43
2022-10-19T01:42:49.583Z,9.38
2022-10-19T01:45:29.722Z,9.34
2022-10-19T01:48:03.388Z,9.31
2022-10-19T01:50:38.909Z,9.24
2022-10-19T01:53:09.282Z,9.18
2022-10-19T01:55:40.074Z,9.15
2022-10-19T01:58:10.136Z,9.14
2022-10-19T02:00:39.879Z,9.13
2022-10-19T02:03:07.200Z,9.12
2022-10-19T02:05:35.927Z,9.13
2022-10-19T02:08:12.021Z,9.10
2022-10-19T02:10:42.501Z,9.05
2022-10-19T02:13:10.463Z,9.00
2022-10-19T02:15:40.814Z,8.98
2022-10-19T02:18:09.748Z,8.96
2022-10-19T02:20:37.164Z,8.95
2022-10-19T02:23:07.745Z,8.95
2022-10-19T02:25:34.677Z,8.88
2022-10-19T02:28:02.658Z,8.90
2022-10-19T02:30:29.065Z,8.91
2022-10-19T02:32:55.491Z,8.91
2022-10-19T02:35:22.894Z,8.87
2022-10-19T02:37:49.525Z,8.84
2022-10-19T02:40:16.218Z,8.77
2022-10-19T02:42:53.974Z,8.77
2022-10-19T02:45:33.619Z,8.76
2022-10-19T02:48:10.153Z,8.72
2022-10-19T02:50:38.521Z,8.71
2022-10-19T02:53:04.830Z,8.67
2022-10-19T02:55:31.285Z,8.65
2022-10-19T02:57:57.835Z,8.62
2022-10-19T03:00:24.203Z,8.59
2022-10-19T03:02:50.551Z,8.56
2022-10-19T03:05:17.000Z,8.46
2022-10-19T03:07:43.351Z,8.40
2022-10-19T03:10:10.017Z,8.38
2022-10-19T03:12:36.385Z,8.40
2022-10-19T03:15:03.567Z,8.39
2022-10-19T03:17:29.930Z,8.43
2022-10-19T03:19:56.322Z,8.45
2022-10-19T03:22:22.688Z,8.45
2022-10-19T03:24:55.111Z,8.46
2022-10-19T03:27:21.577Z,8.44
2022-10-19T03:29:47.894Z,8.40
2022-10-19T03:32:14.195Z,8.34
2022-10-19T03:34:40.549Z,8.36
2022-10-19T03:37:08.500Z,8.34
2022-10-19T03:39:34.981Z,8.34
2022-10-19T03:42:01.516Z,8.30
2022-10-19T03:44:27.834Z,8.27
2022-10-19T03:46:55.604Z,8.23
2022-10-19T03:49:25.678Z,8.20
2022-10-19T03:51:52.051Z,8.17
2022-10-19T03:54:18.465Z,8.12
2022-10-19T03:56:44.972Z,8.12
2022-10-19T03:59:14.485Z,8.13
2022-10-19T04:01:45.001Z,8.19
2022-10-19T04:04:19.323Z,8.17
2022-10-19T04:06:47.990Z,8.15
2022-10-19T04:09:17.159Z,8.15
2022-10-19T04:11:43.942Z,8.13
2022-10-19T04:14:18.944Z,8.06
2022-10-19T04:16:53.677Z,8.00
2022-10-19T04:19:23.115Z,8.00
2022-10-19T04:21:52.377Z,7.94
2022-10-19T04:24:19.267Z,7.84
2022-10-19T04:26:50.919Z,7.76
2022-10-19T04:29:19.178Z,7.75
2022-10-19T04:31:50.667Z,7.76
2022-10-19T04:34:18.679Z,7.79
2022-10-19T04:36:45.434Z,7.77
2022-10-19T04:39:11.924Z,7.78
2022-10-19T04:41:38.686Z,7.74
2022-10-19T04:44:11.424Z,7.75
2022-10-19T04:46:38.504Z,7.77
2022-10-19T04:49:06.616Z,7.79
2022-10-19T04:51:33.181Z,7.74
2022-10-19T04:54:00.119Z,7.69
2022-10-19T04:56:27.896Z,7.73
2022-10-19T04:58:58.410Z,7.73
2022-10-19T05:01:26.541Z,7.74
2022-10-19T05:04:00.533Z,7.69
2022-10-19T05:06:27.848Z,7.64
2022-10-19T05:08:54.696Z,7.60
2022-10-19T05:11:21.414Z,7.58
2022-10-19T05:13:48.759Z,7.62
2022-10-19T05:16:18.910Z,7.59
2022-10-19T05:18:52.749Z,7.58
2022-10-19T05:21:20.592Z,7.54
2022-10-19T05:23:46.965Z,7.54
2022-10-19T05:26:17.298Z,7.53
2022-10-19T05:28:56.412Z,7.42
2022-10-19T05:31:25.542Z,7.40
2022-10-19T05:33:52.017Z,7.41
2022-10-19T05:36:27.501Z,7.39
2022-10-19T05:38:56.291Z,7.36
2022-10-19T05:41:23.599Z,7.32
2022-10-19T05:43:54.702Z,7.32
2022-10-19T05:46:21.421Z,7.32
2022-10-19T05:48:48.028Z,7.30
2022-10-19T05:51:17.592Z,7.27
2022-10-19T05:53:44.524Z,7.27
2022-10-19T05:56:21.062Z,7.25
2022-10-19T05:58:48.969Z,7.23
2022-10-19T06:01:16.397Z,7.23
2022-10-19T06:03:43.336Z,7.35
2022-10-19T06:06:10.390Z,7.41
2022-10-19T06:08:38.239Z,7.36
2022-10-19T06:11:14.103Z,7.36
2022-10-19T06:13:42.285Z,7.34
2022-10-19T06:16:12.832Z,7.33
2022-10-19T06:18:40.059Z,7.35
2022-10-19T06:21:27.357Z,7.37
2022-10-19T06:23:58.634Z,7.34
2022-10-19T06:26:26.354Z,7.34
2022-10-19T06:28:56.702Z,7.33
2022-10-19T06:31:23.231Z,7.31
2022-10-19T06:33:49.853Z,7.33
2022-10-19T06:36:25.192Z,7.34
2022-10-19T06:38:53.114Z,7.39
2022-10-19T06:41:20.189Z,7.52
2022-10-19T06:43:53.977Z,7.61
2022-10-19T06:46:23.377Z,7.71
2022-10-19T06:48:55.357Z,7.76
2022-10-19T06:51:22.773Z,7.85
2022-10-19T06:53:52.860Z,7.86
2022-10-19T06:56:24.506Z,7.92
2022-10-19T06:58:50.993Z,7.95
2022-10-19T07:01:17.404Z,7.95
2022-10-19T07:03:43.858Z,7.95
2022-10-19T07:06:12.014Z,8.02
2022-10-19T07:08:39.959Z,8.11
2022-10-19T07:11:10.751Z,8.17
2022-10-19T07:13:37.860Z,8.25
2022-10-19T07:16:06.919Z,8.33
2022-10-19T07:18:35.224Z,8.43
2022-10-19T07:21:03.392Z,8.52
2022-10-19T07:23:34.721Z,8.57
2022-10-19T07:26:12.116Z,8.69
2022-10-19T07:28:40.794Z,8.75
2022-10-19T07:31:09.892Z,8.86
2022-10-19T07:33:39.949Z,8.98
2022-10-19T07:36:09.304Z,9.11
2022-10-19T07:38:36.628Z,9.20
2022-10-19T07:41:12.732Z,9.32
2022-10-19T07:43:40.041Z,9.40
2022-10-19T07:46:08.778Z,9.44
2022-10-19T07:48:35.640Z,9.52
2022-10-19T07:51:05.227Z,9.56
2022-10-19T07:53:31.821Z,9.66
2022-10-19T07:56:07.001Z,9.72
2022-10-19T07:58:34.255Z,9.79
2022-10-19T08:01:02.837Z,9.81
2022-10-19T08:04:14.203Z,9.88
2022-10-19T08:06:18.960Z,9.96
2022-10-19T08:08:46.402Z,10.01
2022-10-19T08:11:19.883Z,10.06
2022-10-19T08:13:46.820Z,10.14
2022-10-19T08:16:32.656Z,10.20
2022-10-19T08:19:02.350Z,10.28
2022-10-19T08:21:30.312Z,10.24
2022-10-19T08:23:57.202Z,10.41
2022-10-19T08:26:27.349Z,10.49
2022-10-19T08:28:53.700Z,10.54
2022-10-19T08:31:22.167Z,10.61
2022-10-19T08:33:51.531Z,10.72
2022-10-19T08:36:21.726Z,10.82
2022-10-19T08:38:49.109Z,10.95
2022-10-19T08:41:23.119Z,11.10
2022-10-19T08:44:15.734Z,11.27
2022-10-19T08:47:07.706Z,11.08
2022-10-19T08:49:35.022Z,11.54
2022-10-19T08:52:12.170Z,11.69
2022-10-19T08:54:54.783Z,11.84
2022-10-19T08:58:02.014Z,12.09
2022-10-19T09:03:27.087Z,12.74
2022-10-19T09:06:24.698Z,13.13
2022-10-19T09:08:54.009Z,13.56
2022-10-19T09:11:25.851Z,14.25
2022-10-19T09:14:06.390Z,14.98
2022-10-19T09:16:34.875Z,15.72
2022-10-19T09:19:01.985Z,16.34
2022-10-19T09:21:55.484Z,16.88
2022-10-19T09:24:48.099Z,17.13
2022-10-19T09:27:21.864Z,17.39
2022-10-19T09:29:55.096Z,17.79
2022-10-19T09:32:30.936Z,18.31
2022-10-19T09:35:02.231Z,18.88
2022-10-19T09:40:01.400Z,19.70
2022-10-19T09:42:32.985Z,20.10
2022-10-19T09:45:02.824Z,20.47
2022-10-19T09:47:40.605Z,20.69
2022-10-19T09:50:18.240Z,20.83
2022-10-19T09:52:52.699Z,20.92
2022-10-19T09:55:39.050Z,21.12
2022-10-19T09:58:19.600Z,21.25
2022-10-19T10:00:51.249Z,21.38
2022-10-19T10:03:39.337Z,21.47
2022-10-19T10:06:12.340Z,21.52
2022-10-19T10:08:46.870Z,21.49
2022-10-19T10:11:22.322Z,21.57
2022-10-19T10:13:52.406Z,21.47
2022-10-19T10:16:22.194Z,21.53
2022-10-19T10:18:55.363Z,21.86
2022-10-19T10:21:35.678Z,22.07
2022-10-19T10:24:23.117Z,21.96
2022-10-19T10:26:54.718Z,21.82
2022-10-19T10:29:23.743Z,21.65
2022-10-19T10:31:58.539Z,21.39
2022-10-19T10:34:55.853Z,21.13
2022-10-19T10:37:28.375Z,20.60
2022-10-19T10:40:01.903Z,20.39
2022-10-19T10:42:37.795Z,20.40
2022-10-19T10:45:05.831Z,20.48
2022-10-19T10:47:32.551Z,20.47
2022-10-19T10:50:06.447Z,20.73
2022-10-19T10:52:33.566Z,21.03
2022-10-19T10:55:02.306Z,21.07
2022-10-19T10:57:35.427Z,20.83
2022-10-19T11:00:08.037Z,20.98
2022-10-19T11:02:56.411Z,21.08
2022-10-19T11:05:28.588Z,21.11
2022-10-19T11:08:05.864Z,21.33
2022-10-19T11:10:41.601Z,21.36
2022-10-19T11:13:21.327Z,21.32
2022-10-19T11:16:01.317Z,21.43
2022-10-19T11:21:30.944Z,21.65
2022-10-19T11:24:08.576Z,21.62
2022-10-19T11:27:12.447Z,21.63
2022-10-19T11:30:00.375Z,21.63
2022-10-19T11:32:52.586Z,21.64
2022-10-19T11:35:55.649Z,21.56
2022-10-19T11:38:31.265Z,21.65
2022-10-19T11:41:18.552Z,21.49
2022-10-19T11:44:11.879Z,21.56
2022-10-19T11:46:55.179Z,21.32
2022-10-19T11:49:35.812Z,21.14
2022-10-19T11:52:48.522Z,21.11
2022-10-19T11:55:38.109Z,21.13
2022-10-19T11:58:28.114Z,21.21
2022-10-19T12:01:12.684Z,21.20
2022-10-19T12:03:48.085Z,20.88
2022-10-19T12:06:14.404Z,20.61
2022-10-19T12:09:13.719Z,20.62
2022-10-19T12:11:42.990Z,20.61
2022-10-19T12:14:14.741Z,20.78
2022-10-19T12:16:45.562Z,20.70
2022-10-19T12:19:19.600Z,20.52
2022-10-19T12:21:47.602Z,20.56
2022-10-19T12:24:19.293Z,20.49
2022-10-19T12:26:46.832Z,20.54
2022-10-19T12:29:17.834Z,20.55
2022-10-19T12:31:46.070Z,20.51
2022-10-19T12:34:32.590Z,20.44
2022-10-19T12:37:03.727Z,20.41
2022-10-19T12:39:50.369Z,20.29
2022-10-19T12:42:46.582Z,20.35
2022-10-19T12:45:28.054Z,20.23
2022-10-19T12:48:13.925Z,20.13
2022-10-19T12:50:49.148Z,19.99
2022-10-19T12:53:41.012Z,19.96
2022-10-19T12:56:23.542Z,20.03
2022-10-19T12:58:56.540Z,20.06
2022-10-19T13:01:31.288Z,19.93
2022-10-19T13:04:11.410Z,19.80
2022-10-19T13:06:46.215Z,19.62
2022-10-19T13:09:31.693Z,19.65
2022-10-19T13:12:14.779Z,19.59
2022-10-19T13:14:44.142Z,19.67
2022-10-19T13:17:11.159Z,19.72
2022-10-19T13:19:37.598Z,19.63
2022-10-19T13:22:26.532Z,19.67
2022-10-19T13:25:35.403Z,19.63
2022-10-19T13:28:07.652Z,19.53
2022-10-19T13:30:41.673Z,19.53
2022-10-19T13:33:47.567Z,19.40
2022-10-19T13:36:14.173Z,19.35
2022-10-19T13:38:42.058Z,19.23
2022-10-19T13:41:36.797Z,19.09
2022-10-19T13:44:09.033Z,19.03
2022-10-19T13:46:56.989Z,19.06
2022-10-19T13:49:57.409Z,18.96
2022-10-19T13:53:01.159Z,18.81
2022-10-19T13:55:46.556Z,18.81
2022-10-19T13:58:22.860Z,18.87
2022-10-19T14:01:23.273Z,18.91
2022-10-19T14:03:55.582Z,18.82
2022-10-19T14:06:27.647Z,18.82
2022-10-19T14:09:15.131Z,18.82
2022-10-19T14:11:44.209Z,18.75
2022-10-19T14:14:15.865Z,18.68
2022-10-19T14:17:03.180Z,18.60
2022-10-19T14:19:43.269Z,18.53
2022-10-19T14:22:21.743Z,18.44
2022-10-19T14:24:48.172Z,18.42
2022-10-19T14:27:24.147Z,18.40
2022-10-19T14:29:52.846Z,18.39
2022-10-19T14:32:26.049Z,18.34
2022-10-19T14:34:53.362Z,18.32
2022-10-19T14:37:22.911Z,18.23
2022-10-19T14:40:01.476Z,18.16
2022-10-19T14:42:37.614Z,18.09
2022-10-19T14:45:06.363Z,17.96
2022-10-19T14:47:32.796Z,17.88
2022-10-19T14:49:59.234Z,17.83
2022-10-19T14:52:33.153Z,17.67
2022-10-19T14:55:01.825Z,17.66
2022-10-19T14:57:36.327Z,17.60
2022-10-19T15:00:06.226Z,17.57
2022-10-19T15:02:40.508Z,17.49
2022-10-19T15:05:17.968Z,17.50
2022-10-19T15:07:46.997Z,17.38
2022-10-19T15:10:22.914Z,17.34
2022-10-19T15:12:51.358Z,17.26
2022-10-19T15:15:24.938Z,17.11
2022-10-19T15:18:05.552Z,17.03
2022-10-19T15:20:43.934Z,17.04
2022-10-19T15:23:45.504Z,17.03
2022-10-19T15:26:28.768Z,16.89
2022-10-19T15:29:07.303Z,16.81
2022-10-19T15:31:33.725Z,16.71
2022-10-19T15:34:01.964Z,16.66
2022-10-19T15:36:30.633Z,16.64
2022-10-19T15:39:32.989Z,16.66
2022-10-19T15:42:41.668Z,16.59
2022-10-19T15:45:27.473Z,16.49
2022-10-19T15:48:24.280Z,16.40
2022-10-19T15:50:51.962Z,16.32
2022-10-19T15:53:19.454Z,16.27
2022-10-19T15:55:46.117Z,16.21
2022-10-19T15:58:13.381Z,16.12
2022-10-19T16:00:41.061Z,16.06
2022-10-19T16:03:07.534Z,15.97
2022-10-19T16:05:36.209Z,15.89
2022-10-19T16:08:02.653Z,15.88
2022-10-19T16:10:28.982Z,15.82
2022-10-19T16:12:55.340Z,15.76
2022-10-19T16:15:23.312Z,15.73
2022-10-19T16:17:55.438Z,15.67
2022-10-19T16:20:22.950Z,15.66
2022-10-19T16:22:52.304Z,15.58
2022-10-19T16:25:18.745Z,15.49
2022-10-19T16:27:45.109Z,15.45
2022-10-19T16:30:12.468Z,15.33
2022-10-19T16:32:44.656Z,15.26
2022-10-19T16:35:12.041Z,15.22
2022-10-19T16:37:38.440Z,15.20
2022-10-19T16:40:05.403Z,15.18
2022-10-19T16:42:34.716Z,15.17
2022-10-19T16:45:01.414Z,15.14
2022-10-19T16:47:27.746Z,15.06
2022-10-19T16:49:59.922Z,15.04
2022-10-19T16:52:27.815Z,15.02
2022-10-19T16:54:55.422Z,15.02
2022-10-19T16:57:21.801Z,15.00
2022-10-19T17:02:25.370Z,14.79
2022-10-19T17:04:51.759Z,14.80
2022-10-19T17:07:18.322Z,14.67
2022-10-19T17:09:44.913Z,14.61
2022-10-19T17:12:12.231Z,14.44
2022-10-19T17:14:40.917Z,14.44
2022-10-19T17:17:08.249Z,14.39
2022-10-19T17:19:35.940Z,14.38
2022-10-19T17:22:03.474Z,14.36
2022-10-19T17:24:30.963Z,14.30
2022-10-19T17:26:57.423Z,14.26
2022-10-19T17:29:23.868Z,14.16
2022-10-19T17:31:50.575Z,14.09
2022-10-19T17:34:18.157Z,14.04
2022-10-19T17:36:47.999Z,13.98
2022-10-19T17:39:21.457Z,13.90
2022-10-19T17:41:51.446Z,13.88
2022-10-19T17:44:19.407Z,13.86
2022-10-19T17:46:46.405Z,13.82
2022-10-19T17:49:13.930Z,13.75
2022-10-19T17:51:40.578Z,13.75
2022-10-19T17:54:09.193Z,13.67
2022-10-19T17:56:37.239Z,13.56
2022-10-19T17:59:04.428Z,13.51
2022-10-19T18:01:31.296Z,13.47
2022-10-19T18:03:57.727Z,13.41
2022-10-19T18:06:28.693Z,13.37
2022-10-19T18:08:56.601Z,13.35
2022-10-19T18:11:28.529Z,13.34
2022-10-19T18:13:58.423Z,13.35
2022-10-19T18:16:27.461Z,13.30
2022-10-19T18:18:55.876Z,13.29
2022-10-19T18:21:28.789Z,13.23
2022-10-19T18:23:56.820Z,13.14
2022-10-19T18:26:25.020Z,13.18
2022-10-19T18:28:52.645Z,13.19
2022-10-19T18:31:22.112Z,13.20
2022-10-19T18:33:54.402Z,13.22
2022-10-19T18:36:20.789Z,13.22
2022-10-19T18:38:51.735Z,13.17
2022-10-19T18:41:21.053Z,13.12
2022-10-19T18:44:01.189Z,13.08
2022-10-19T18:46:27.567Z,12.97
2022-10-19T18:48:54.017Z,12.96
2022-10-19T18:51:21.820Z,12.90
2022-10-19T18:53:48.379Z,12.82
2022-10-19T18:56:17.514Z,12.75
2022-10-19T18:58:44.375Z,12.67
2022-10-19T19:01:14.994Z,12.60
2022-10-19T19:03:44.453Z,12.58
2022-10-19T19:06:16.800Z,12.59
2022-10-19T19:11:25.569Z,12.55
2022-10-19T19:13:55.105Z,12.52
2022-10-19T19:16:22.858Z,12.46
2022-10-19T19:18:49.701Z,12.43
2022-10-19T19:21:17.392Z,12.38
2022-10-19T19:23:43.892Z,12.34
2022-10-19T19:26:12.775Z,12.30
2022-10-19T19:28:41.844Z,12.22
2022-10-19T19:31:10.537Z,12.18
2022-10-19T19:33:37.325Z,12.10
2022-10-19T19:36:05.547Z,12.07
2022-10-19T19:38:36.269Z,12.03
2022-10-19T19:41:07.638Z,11.99
2022-10-19T19:43:39.324Z,11.95
2022-10-19T19:46:12.767Z,11.93
2022-10-19T19:48:40.795Z,11.91
2022-10-19T19:51:08.985Z,11.91
2022-10-19T19:53:37.502Z,11.86
2022-10-19T19:56:06.379Z,11.83
2022-10-19T19:58:32.692Z,11.82
2022-10-19T20:01:00.107Z,11.77
2022-10-19T20:03:26.479Z,11.73
2022-10-19T20:05:52.790Z,11.71
2022-10-19T20:08:19.119Z,11.69
2022-10-19T20:10:45.421Z,11.66
2022-10-19T20:13:11.808Z,11.63
2022-10-19T20:15:38.915Z,11.60
2022-10-19T20:18:06.021Z,11.58
2022-10-19T20:20:32.322Z,11.62
2022-10-19T20:22:58.626Z,11.63
2022-10-19T20:25:24.952Z,11.62
2022-10-19T20:27:51.300Z,11.62
2022-10-19T20:30:17.639Z,11.63
2022-10-19T20:32:44.007Z,11.61
2022-10-19T20:35:11.783Z,11.58
2022-10-19T20:37:38.182Z,11.54
2022-10-19T20:40:08.595Z,11.50
2022-10-19T20:42:35.662Z,11.43
2022-10-19T20:45:02.373Z,11.39
2022-10-19T20:47:29.174Z,11.32
2022-10-19T20:49:55.526Z,11.23
2022-10-19T20:52:21.843Z,11.20
2022-10-19T20:54:48.637Z,11.17
2022-10-19T20:57:15.007Z,11.15
2022-10-19T20:59:42.825Z,11.15
2022-10-19T21:02:10.077Z,11.14
2022-10-19T21:04:36.568Z,11.09
2022-10-19T21:07:04.813Z,11.06
2022-10-19T21:09:31.433Z,11.05
2022-10-19T21:11:57.761Z,11.04
2022-10-19T21:14:28.815Z,11.02
2022-10-19T21:16:59.614Z,11.00
2022-10-19T21:19:28.304Z,10.96
2022-10-19T21:22:03.080Z,10.96
2022-10-19T21:24:36.012Z,10.91
2022-10-19T21:27:05.477Z,10.92
2022-10-19T21:29:31.929Z,10.93
2022-10-19T21:31:59.767Z,10.91
2022-10-19T21:34:28.405Z,10.94
2022-10-19T21:36:55.388Z,10.94
2022-10-19T21:39:22.224Z,10.93
2022-10-19T21:41:51.479Z,10.94
2022-10-19T21:44:22.663Z,10.94
2022-10-19T21:46:49.102Z,10.95
2022-10-19T21:49:16.015Z,10.93
2022-10-19T21:51:47.190Z,10.93
2022-10-19T21:54:28.239Z,10.93
2022-10-19T21:59:39.429Z,10.84
2022-10-19T22:02:05.771Z,10.83
2022-10-19T22:04:32.156Z,10.80
2022-10-19T22:07:00.566Z,10.74
2022-10-19T22:09:26.952Z,10.75
2022-10-19T22:11:53.331Z,10.78
2022-10-19T22:14:19.713Z,10.77
2022-10-19T22:16:46.410Z,10.79
2022-10-19T22:19:13.603Z,10.76
2022-10-19T22:21:40.910Z,10.75
2022-10-19T22:24:11.995Z,10.72
2022-10-19T22:26:44.437Z,10.71
2022-10-19T22:29:10.998Z,10.64
2022-10-19T22:31:38.178Z,10.60
2022-10-19T22:34:07.592Z,10.54
2022-10-19T22:36:34.182Z,10.48
2022-10-19T22:39:00.719Z,10.47
2022-10-19T22:42:04.382Z,10.44
2022-10-19T22:44:31.186Z,10.40
2022-10-19T22:46:58.411Z,10.41
2022-10-19T22:49:27.976Z,10.40
2022-10-19T22:52:01.632Z,10.36
2022-10-19T22:54:45.928Z,10.30
2022-10-19T22:57:33.227Z,10.23
2022-10-19T22:59:59.735Z,10.26
2022-10-19T23:02:29.462Z,10.26
2022-10-19T23:04:58.341Z,10.22
2022-10-19T23:07:24.762Z,10.16
2022-10-19T23:09:51.212Z,10.15
2022-10-19T23:12:17.700Z,10.12
2022-10-19T23:15:13.242Z,10.17
2022-10-19T23:17:39.911Z,10.16
2022-10-19T23:20:06.861Z,10.14
2022-10-19T23:22:33.394Z,10.19
2022-10-19T23:25:02.168Z,10.17
2022-10-19T23:27:28.576Z,10.13
2022-10-19T23:29:55.208Z,10.10
2022-10-19T23:32:24.748Z,10.07
2022-10-19T23:34:51.228Z,10.01
2022-10-19T23:37:17.768Z,9.99
2022-10-19T23:39:47.311Z,10.01
2022-10-19T23:42:16.528Z,9.98
2022-10-19T23:44:42.901Z,9.94
2022-10-19T23:47:09.549Z,9.95
2022-10-19T23:49:35.872Z,9.95
2022-10-19T23:52:02.512Z,9.92
2022-10-19T23:54:29.191Z,9.88
2022-10-19T23:56:55.891Z,9.87
2022-10-19T23:59:27.744Z,9.88
